This is the latest recevied weather packets stored in our database for station/object W8UFO-13. If no packets are shown the sender has not sent any weather packets the latest 10 day(s).
| Time | Temp. | Humidity | Pressure | Rain* | Wind** | Luminosity | Snow |
|---|---|---|---|---|---|---|---|
| 1777997357 | 23.89° C | 55% | 1016.9 hPa | 0 mm | - | - | - |
| 1777997057 | 23.33° C | 55% | 1016.8 hPa | 0 mm | - | - | - |
| 1777996757 | 23.33° C | 53% | 1016.9 hPa | 0 mm | - | - | - |
| 1777996457 | 22.78° C | 56% | 1016.9 hPa | 0 mm | - | - | - |
| 1777996157 | 22.22° C | 57% | 1016.8 hPa | 0 mm | - | - | - |
| 1777995857 | 22.22° C | 57% | 1016.8 hPa | 0 mm | - | - | - |
| 1777995557 | 22.22° C | 58% | 1016.8 hPa | 0 mm | - | - | - |
| 1777995257 | 22.22° C | 58% | 1016.8 hPa | 0 mm | - | - | - |
| 1777994957 | 22.22° C | 59% | 1016.9 hPa | 0 mm | - | - | - |
| 1777994657 | 22.22° C | 59% | 1017 hPa | 0 mm | - | - | - |
| 1777994357 | 21.67° C | 58% | 1016.8 hPa | 0 mm | - | - | - |
| 1777994057 | 21.67° C | 60% | 1016.7 hPa | 0 mm | - | - | - |
| 1777993757 | 21.11° C | 59% | 1016.6 hPa | 0 mm | - | - | - |
| 1777993457 | 21.67° C | 59% | 1016.8 hPa | 0 mm | - | - | - |
| 1777993157 | 21.11° C | 60% | 1016.8 hPa | 0 mm | - | - | - |
| 1777992857 | 21.11° C | 60% | 1016.8 hPa | 0 mm | - | - | - |
| 1777992557 | 21.11° C | 59% | 1016.9 hPa | 0 mm | - | - | - |
| 1777992256 | 20.56° C | 62% | 1016.7 hPa | 0 mm | - | - | - |
| 1777991956 | 20.56° C | 62% | 1016.7 hPa | 0 mm | - | - | - |
| 1777991657 | 20° C | 61% | 1016.8 hPa | 0 mm | - | - | - |
| 1777991357 | 20° C | 61% | 1016.7 hPa | 0 mm | - | - | - |
| 1777991057 | 20° C | 60% | 1016.8 hPa | 0 mm | - | - | - |
| 1777990756 | 20° C | 60% | 1016.7 hPa | 0 mm | - | - | - |
| 1777990457 | 20° C | 61% | 1016.8 hPa | 0 mm | - | - | - |
| 1777989856 | 20° C | 61% | 1017 hPa | 0 mm | - | - | - |
* Rain latest hour (hover to see other rain measurements)
** Current wind speed in m/s (hover to see current wind gust speed)